sensor_id;sensor_type;location;lat;lon;timestamp;temperature;humidity
23721;DHT22;42950;52.134;5.578;2022-09-03T00:01:41;17.40;99.90
23721;DHT22;42950;52.134;5.578;2022-09-03T00:04:27;17.40;99.90
23721;DHT22;42950;52.134;5.578;2022-09-03T00:07:01;17.30;99.90
23721;DHT22;42950;52.134;5.578;2022-09-03T00:09:40;17.30;99.90
23721;DHT22;42950;52.134;5.578;2022-09-03T00:12:14;17.30;99.90
23721;DHT22;42950;52.134;5.578;2022-09-03T00:14:56;17.30;99.90
23721;DHT22;42950;52.134;5.578;2022-09-03T00:17:37;17.30;99.90
23721;DHT22;42950;52.134;5.578;2022-09-03T00:20:14;17.20;99.90
23721;DHT22;42950;52.134;5.578;2022-09-03T00:22:46;17.20;99.90
23721;DHT22;42950;52.134;5.578;2022-09-03T00:25:16;17.20;99.90
23721;DHT22;42950;52.134;5.578;2022-09-03T00:27:44;17.20;99.90
23721;DHT22;42950;52.134;5.578;2022-09-03T00:30:14;17.10;99.90
23721;DHT22;42950;52.134;5.578;2022-09-03T00:32:51;17.10;99.90
23721;DHT22;42950;52.134;5.578;2022-09-03T00:35:34;17.10;99.90
23721;DHT22;42950;52.134;5.578;2022-09-03T00:38:02;17.10;99.90
23721;DHT22;42950;52.134;5.578;2022-09-03T00:43:29;17.00;99.90
23721;DHT22;42950;52.134;5.578;2022-09-03T00:46:33;17.10;99.90
23721;DHT22;42950;52.134;5.578;2022-09-03T00:58:02;17.00;99.90
23721;DHT22;42950;52.134;5.578;2022-09-03T01:00:33;16.90;99.90
23721;DHT22;42950;52.134;5.578;2022-09-03T01:03:24;16.90;99.90
23721;DHT22;42950;52.134;5.578;2022-09-03T01:06:38;16.90;99.90
23721;DHT22;42950;52.134;5.578;2022-09-03T01:16:59;16.80;99.90
23721;DHT22;42950;52.134;5.578;2022-09-03T01:19:51;16.70;99.90
23721;DHT22;42950;52.134;5.578;2022-09-03T01:30:54;16.60;99.90
23721;DHT22;42950;52.134;5.578;2022-09-03T01:33:31;16.60;99.90
23721;DHT22;42950;52.134;5.578;2022-09-03T01:38:55;16.60;99.90
23721;DHT22;42950;52.134;5.578;2022-09-03T01:44:27;16.50;99.90
23721;DHT22;42950;52.134;5.578;2022-09-03T01:50:12;16.40;99.90
23721;DHT22;42950;52.134;5.578;2022-09-03T01:52:54;16.40;99.90
23721;DHT22;42950;52.134;5.578;2022-09-03T01:58:30;16.30;99.90
23721;DHT22;42950;52.134;5.578;2022-09-03T02:01:05;16.30;99.90
23721;DHT22;42950;52.134;5.578;2022-09-03T02:03:38;16.30;99.90
23721;DHT22;42950;52.134;5.578;2022-09-03T02:06:06;16.30;99.90
23721;DHT22;42950;52.134;5.578;2022-09-03T02:08:32;16.30;99.90
23721;DHT22;42950;52.134;5.578;2022-09-03T02:10:57;16.20;99.90
23721;DHT22;42950;52.134;5.578;2022-09-03T02:13:49;16.30;99.90
23721;DHT22;42950;52.134;5.578;2022-09-03T02:16:27;16.30;99.90
23721;DHT22;42950;52.134;5.578;2022-09-03T02:18:58;16.30;99.90
23721;DHT22;42950;52.134;5.578;2022-09-03T02:21:27;16.20;99.90
23721;DHT22;42950;52.134;5.578;2022-09-03T02:23:56;16.20;99.90
23721;DHT22;42950;52.134;5.578;2022-09-03T02:26:23;16.10;99.90
23721;DHT22;42950;52.134;5.578;2022-09-03T02:28:50;16.10;99.90
23721;DHT22;42950;52.134;5.578;2022-09-03T02:31:16;16.10;99.90
23721;DHT22;42950;52.134;5.578;2022-09-03T02:33:44;16.20;99.90
23721;DHT22;42950;52.134;5.578;2022-09-03T02:36:14;16.10;99.90
23721;DHT22;42950;52.134;5.578;2022-09-03T02:38:44;16.00;99.90
23721;DHT22;42950;52.134;5.578;2022-09-03T02:41:10;16.00;99.90
23721;DHT22;42950;52.134;5.578;2022-09-03T02:43:53;16.10;99.90
23721;DHT22;42950;52.134;5.578;2022-09-03T02:46:26;16.00;99.90
23721;DHT22;42950;52.134;5.578;2022-09-03T02:48:53;16.00;99.90
23721;DHT22;42950;52.134;5.578;2022-09-03T02:51:18;16.00;99.90
23721;DHT22;42950;52.134;5.578;2022-09-03T02:53:44;16.00;99.90
23721;DHT22;42950;52.134;5.578;2022-09-03T02:56:10;15.90;99.90
23721;DHT22;42950;52.134;5.578;2022-09-03T02:58:36;15.90;99.90
23721;DHT22;42950;52.134;5.578;2022-09-03T03:01:03;15.90;99.90
23721;DHT22;42950;52.134;5.578;2022-09-03T03:03:28;15.90;99.90
23721;DHT22;42950;52.134;5.578;2022-09-03T03:05:56;15.90;99.90
23721;DHT22;42950;52.134;5.578;2022-09-03T03:08:24;15.90;99.90
23721;DHT22;42950;52.134;5.578;2022-09-03T03:10:53;15.80;99.90
23721;DHT22;42950;52.134;5.578;2022-09-03T03:13:21;15.80;99.90
23721;DHT22;42950;52.134;5.578;2022-09-03T03:15:47;15.80;99.90
23721;DHT22;42950;52.134;5.578;2022-09-03T03:18:13;15.80;99.90
23721;DHT22;42950;52.134;5.578;2022-09-03T03:20:39;15.80;99.90
23721;DHT22;42950;52.134;5.578;2022-09-03T03:23:05;15.70;99.90
23721;DHT22;42950;52.134;5.578;2022-09-03T03:25:36;15.70;99.90
23721;DHT22;42950;52.134;5.578;2022-09-03T03:28:02;15.70;99.90
23721;DHT22;42950;52.134;5.578;2022-09-03T03:30:29;15.60;99.90
23721;DHT22;42950;52.134;5.578;2022-09-03T03:32:54;15.60;99.90
23721;DHT22;42950;52.134;5.578;2022-09-03T03:35:20;15.50;99.90
23721;DHT22;42950;52.134;5.578;2022-09-03T03:37:46;15.50;99.90
23721;DHT22;42950;52.134;5.578;2022-09-03T03:40:12;15.50;99.90
23721;DHT22;42950;52.134;5.578;2022-09-03T03:42:38;15.50;99.90
23721;DHT22;42950;52.134;5.578;2022-09-03T03:45:05;15.50;99.90
23721;DHT22;42950;52.134;5.578;2022-09-03T03:47:31;15.50;99.90
23721;DHT22;42950;52.134;5.578;2022-09-03T03:49:57;15.40;99.90
23721;DHT22;42950;52.134;5.578;2022-09-03T03:52:24;15.40;99.90
23721;DHT22;42950;52.134;5.578;2022-09-03T03:54:50;15.40;99.90
23721;DHT22;42950;52.134;5.578;2022-09-03T03:57:16;15.30;99.90
23721;DHT22;42950;52.134;5.578;2022-09-03T03:59:44;15.30;99.90
23721;DHT22;42950;52.134;5.578;2022-09-03T04:02:09;15.30;99.90
23721;DHT22;42950;52.134;5.578;2022-09-03T04:04:35;15.30;99.90
23721;DHT22;42950;52.134;5.578;2022-09-03T04:07:00;15.20;99.90
23721;DHT22;42950;52.134;5.578;2022-09-03T04:09:26;15.20;99.90
23721;DHT22;42950;52.134;5.578;2022-09-03T04:11:51;15.20;99.90
23721;DHT22;42950;52.134;5.578;2022-09-03T04:14:17;15.20;99.90
23721;DHT22;42950;52.134;5.578;2022-09-03T04:16:43;15.20;99.90
23721;DHT22;42950;52.134;5.578;2022-09-03T04:19:11;15.20;99.90
23721;DHT22;42950;52.134;5.578;2022-09-03T04:21:37;15.20;99.90
23721;DHT22;42950;52.134;5.578;2022-09-03T04:24:04;15.20;99.90
23721;DHT22;42950;52.134;5.578;2022-09-03T04:26:31;15.10;99.90
23721;DHT22;42950;52.134;5.578;2022-09-03T04:29:04;15.10;99.90
23721;DHT22;42950;52.134;5.578;2022-09-03T04:31:30;15.00;99.90
23721;DHT22;42950;52.134;5.578;2022-09-03T04:33:56;15.00;99.90
23721;DHT22;42950;52.134;5.578;2022-09-03T04:36:23;15.00;99.90
23721;DHT22;42950;52.134;5.578;2022-09-03T04:38:51;15.00;99.90
23721;DHT22;42950;52.134;5.578;2022-09-03T04:41:23;15.00;99.90
23721;DHT22;42950;52.134;5.578;2022-09-03T04:43:50;15.00;99.90
23721;DHT22;42950;52.134;5.578;2022-09-03T04:46:17;14.90;99.90
23721;DHT22;42950;52.134;5.578;2022-09-03T04:48:47;15.00;99.90
23721;DHT22;42950;52.134;5.578;2022-09-03T04:51:15;14.90;99.90
23721;DHT22;42950;52.134;5.578;2022-09-03T04:53:43;14.90;99.90
23721;DHT22;42950;52.134;5.578;2022-09-03T04:56:13;14.90;99.90
23721;DHT22;42950;52.134;5.578;2022-09-03T04:58:40;14.90;99.90
23721;DHT22;42950;52.134;5.578;2022-09-03T05:01:09;14.90;99.90
23721;DHT22;42950;52.134;5.578;2022-09-03T05:03:35;14.90;99.90
23721;DHT22;42950;52.134;5.578;2022-09-03T05:06:02;14.90;99.90
23721;DHT22;42950;52.134;5.578;2022-09-03T05:08:27;14.90;99.90
23721;DHT22;42950;52.134;5.578;2022-09-03T05:10:59;14.90;99.90
23721;DHT22;42950;52.134;5.578;2022-09-03T05:13:25;14.90;99.90
23721;DHT22;42950;52.134;5.578;2022-09-03T05:15:51;14.90;99.90
23721;DHT22;42950;52.134;5.578;2022-09-03T05:18:17;14.90;99.90
23721;DHT22;42950;52.134;5.578;2022-09-03T05:20:42;15.00;99.90
23721;DHT22;42950;52.134;5.578;2022-09-03T05:23:08;15.00;99.90
23721;DHT22;42950;52.134;5.578;2022-09-03T05:25:34;15.00;99.90
23721;DHT22;42950;52.134;5.578;2022-09-03T05:28:02;15.10;99.90
23721;DHT22;42950;52.134;5.578;2022-09-03T05:30:28;15.20;99.90
23721;DHT22;42950;52.134;5.578;2022-09-03T05:32:54;15.20;99.90
23721;DHT22;42950;52.134;5.578;2022-09-03T05:35:20;15.30;99.90
23721;DHT22;42950;52.134;5.578;2022-09-03T05:37:46;15.30;99.90
23721;DHT22;42950;52.134;5.578;2022-09-03T05:40:12;15.40;99.90
23721;DHT22;42950;52.134;5.578;2022-09-03T05:42:37;15.40;99.90
23721;DHT22;42950;52.134;5.578;2022-09-03T05:45:08;15.60;99.90
23721;DHT22;42950;52.134;5.578;2022-09-03T05:47:38;15.60;99.90
23721;DHT22;42950;52.134;5.578;2022-09-03T05:50:07;15.50;99.90
23721;DHT22;42950;52.134;5.578;2022-09-03T05:52:35;15.60;99.90
23721;DHT22;42950;52.134;5.578;2022-09-03T05:55:01;15.60;99.90
23721;DHT22;42950;52.134;5.578;2022-09-03T05:57:27;15.50;99.90
23721;DHT22;42950;52.134;5.578;2022-09-03T05:59:53;15.60;99.90
23721;DHT22;42950;52.134;5.578;2022-09-03T06:02:19;15.60;99.90
23721;DHT22;42950;52.134;5.578;2022-09-03T06:04:45;15.60;99.90
23721;DHT22;42950;52.134;5.578;2022-09-03T06:07:10;15.70;99.90
23721;DHT22;42950;52.134;5.578;2022-09-03T06:09:37;15.60;99.90
23721;DHT22;42950;52.134;5.578;2022-09-03T06:12:02;15.70;99.90
23721;DHT22;42950;52.134;5.578;2022-09-03T06:14:28;15.70;99.90
23721;DHT22;42950;52.134;5.578;2022-09-03T06:16:54;15.70;99.90
23721;DHT22;42950;52.134;5.578;2022-09-03T06:19:21;15.80;99.90
23721;DHT22;42950;52.134;5.578;2022-09-03T06:21:46;15.80;99.90
23721;DHT22;42950;52.134;5.578;2022-09-03T06:24:15;15.90;99.90
23721;DHT22;42950;52.134;5.578;2022-09-03T06:26:41;15.90;99.90
23721;DHT22;42950;52.134;5.578;2022-09-03T06:29:07;15.90;99.90
23721;DHT22;42950;52.134;5.578;2022-09-03T06:31:33;16.00;99.90
23721;DHT22;42950;52.134;5.578;2022-09-03T06:33:59;16.00;99.90
23721;DHT22;42950;52.134;5.578;2022-09-03T06:36:26;16.00;99.90
23721;DHT22;42950;52.134;5.578;2022-09-03T06:38:54;16.10;99.90
23721;DHT22;42950;52.134;5.578;2022-09-03T06:41:24;16.10;99.90
23721;DHT22;42950;52.134;5.578;2022-09-03T06:44:00;16.20;99.90
23721;DHT22;42950;52.134;5.578;2022-09-03T06:46:30;16.30;99.90
23721;DHT22;42950;52.134;5.578;2022-09-03T06:48:56;16.30;99.90
23721;DHT22;42950;52.134;5.578;2022-09-03T06:51:24;16.40;99.90
23721;DHT22;42950;52.134;5.578;2022-09-03T06:53:52;16.50;99.90
23721;DHT22;42950;52.134;5.578;2022-09-03T06:56:22;16.50;99.90
23721;DHT22;42950;52.134;5.578;2022-09-03T06:58:57;16.60;99.90
23721;DHT22;42950;52.134;5.578;2022-09-03T07:01:25;16.60;99.90
23721;DHT22;42950;52.134;5.578;2022-09-03T07:03:53;16.80;99.90
23721;DHT22;42950;52.134;5.578;2022-09-03T07:06:25;16.80;99.90
23721;DHT22;42950;52.134;5.578;2022-09-03T07:08:52;16.90;99.90
23721;DHT22;42950;52.134;5.578;2022-09-03T07:11:20;17.00;99.90
23721;DHT22;42950;52.134;5.578;2022-09-03T07:13:49;17.10;99.90
23721;DHT22;42950;52.134;5.578;2022-09-03T07:16:20;17.20;99.90
23721;DHT22;42950;52.134;5.578;2022-09-03T07:18:46;17.30;99.90
23721;DHT22;42950;52.134;5.578;2022-09-03T07:21:15;17.40;99.90
23721;DHT22;42950;52.134;5.578;2022-09-03T07:23:41;17.50;99.90
23721;DHT22;42950;52.134;5.578;2022-09-03T07:26:09;17.50;99.90
23721;DHT22;42950;52.134;5.578;2022-09-03T07:28:38;17.60;99.90
23721;DHT22;42950;52.134;5.578;2022-09-03T07:31:10;17.70;99.90
23721;DHT22;42950;52.134;5.578;2022-09-03T07:33:37;17.80;99.90
23721;DHT22;42950;52.134;5.578;2022-09-03T07:36:14;17.90;99.90
23721;DHT22;42950;52.134;5.578;2022-09-03T07:38:41;18.10;99.90
23721;DHT22;42950;52.134;5.578;2022-09-03T07:41:09;18.20;99.90
23721;DHT22;42950;52.134;5.578;2022-09-03T07:43:37;18.30;99.90
23721;DHT22;42950;52.134;5.578;2022-09-03T07:46:08;18.40;99.90
23721;DHT22;42950;52.134;5.578;2022-09-03T07:48:38;18.60;99.90
23721;DHT22;42950;52.134;5.578;2022-09-03T07:51:04;18.70;99.90
23721;DHT22;42950;52.134;5.578;2022-09-03T07:53:29;18.80;99.90
23721;DHT22;42950;52.134;5.578;2022-09-03T07:56:08;18.90;99.90
23721;DHT22;42950;52.134;5.578;2022-09-03T07:58:35;19.00;99.90
23721;DHT22;42950;52.134;5.578;2022-09-03T08:01:12;19.10;99.90
23721;DHT22;42950;52.134;5.578;2022-09-03T08:03:42;19.30;99.90
23721;DHT22;42950;52.134;5.578;2022-09-03T08:06:08;19.40;99.90
23721;DHT22;42950;52.134;5.578;2022-09-03T08:08:34;19.60;99.90
23721;DHT22;42950;52.134;5.578;2022-09-03T08:11:08;19.70;99.90
23721;DHT22;42950;52.134;5.578;2022-09-03T08:13:37;19.90;99.90
23721;DHT22;42950;52.134;5.578;2022-09-03T08:16:03;20.00;99.90
23721;DHT22;42950;52.134;5.578;2022-09-03T08:18:30;20.20;99.90
23721;DHT22;42950;52.134;5.578;2022-09-03T08:21:02;20.40;99.90
23721;DHT22;42950;52.134;5.578;2022-09-03T08:23:28;20.50;99.90
23721;DHT22;42950;52.134;5.578;2022-09-03T08:26:02;20.70;99.90
23721;DHT22;42950;52.134;5.578;2022-09-03T08:28:28;20.90;99.90
23721;DHT22;42950;52.134;5.578;2022-09-03T08:30:56;20.90;99.90
23721;DHT22;42950;52.134;5.578;2022-09-03T08:33:21;21.10;99.90
23721;DHT22;42950;52.134;5.578;2022-09-03T08:36:28;21.30;99.90
23721;DHT22;42950;52.134;5.578;2022-09-03T08:38:55;21.60;99.90
23721;DHT22;42950;52.134;5.578;2022-09-03T08:41:47;21.60;99.90
23721;DHT22;42950;52.134;5.578;2022-09-03T08:44:49;21.80;99.90
23721;DHT22;42950;52.134;5.578;2022-09-03T08:50:14;22.10;99.90
23721;DHT22;42950;52.134;5.578;2022-09-03T08:52:46;22.30;99.90
23721;DHT22;42950;52.134;5.578;2022-09-03T08:55:26;22.40;99.90
23721;DHT22;42950;52.134;5.578;2022-09-03T08:58:03;22.60;99.90
23721;DHT22;42950;52.134;5.578;2022-09-03T09:00:53;22.60;99.90
23721;DHT22;42950;52.134;5.578;2022-09-03T09:03:48;22.80;99.90
23721;DHT22;42950;52.134;5.578;2022-09-03T09:06:18;23.20;99.90
23721;DHT22;42950;52.134;5.578;2022-09-03T09:11:29;23.50;99.90
23721;DHT22;42950;52.134;5.578;2022-09-03T09:14:06;23.50;99.90
23721;DHT22;42950;52.134;5.578;2022-09-03T09:19:46;23.90;99.90
23721;DHT22;42950;52.134;5.578;2022-09-03T09:22:29;24.00;99.90
23721;DHT22;42950;52.134;5.578;2022-09-03T09:24:59;24.20;99.90
23721;DHT22;42950;52.134;5.578;2022-09-03T09:27:27;24.50;99.90
23721;DHT22;42950;52.134;5.578;2022-09-03T09:29:54;24.70;99.90
23721;DHT22;42950;52.134;5.578;2022-09-03T09:32:23;24.80;99.90
23721;DHT22;42950;52.134;5.578;2022-09-03T09:34:48;25.00;99.90
23721;DHT22;42950;52.134;5.578;2022-09-03T09:37:15;25.10;99.90
23721;DHT22;42950;52.134;5.578;2022-09-03T09:39:56;25.10;99.90
23721;DHT22;42950;52.134;5.578;2022-09-03T09:42:22;25.20;99.90
23721;DHT22;42950;52.134;5.578;2022-09-03T09:44:48;25.40;99.90
23721;DHT22;42950;52.134;5.578;2022-09-03T09:47:24;25.50;99.90
23721;DHT22;42950;52.134;5.578;2022-09-03T09:49:56;25.70;99.90
23721;DHT22;42950;52.134;5.578;2022-09-03T09:52:24;25.90;99.90
23721;DHT22;42950;52.134;5.578;2022-09-03T09:54:52;26.00;99.90
23721;DHT22;42950;52.134;5.578;2022-09-03T09:57:23;26.10;99.90
23721;DHT22;42950;52.134;5.578;2022-09-03T10:00:00;26.20;99.90
23721;DHT22;42950;52.134;5.578;2022-09-03T10:02:27;26.30;99.90
23721;DHT22;42950;52.134;5.578;2022-09-03T10:05:01;26.50;99.90
23721;DHT22;42950;52.134;5.578;2022-09-03T10:07:36;26.60;99.90
23721;DHT22;42950;52.134;5.578;2022-09-03T10:10:05;26.70;99.90
23721;DHT22;42950;52.134;5.578;2022-09-03T10:12:38;26.70;99.90
23721;DHT22;42950;52.134;5.578;2022-09-03T10:15:28;26.80;99.90
23721;DHT22;42950;52.134;5.578;2022-09-03T10:18:07;27.20;99.90
23721;DHT22;42950;52.134;5.578;2022-09-03T10:20:50;27.10;99.90
23721;DHT22;42950;52.134;5.578;2022-09-03T10:23:26;27.30;99.90
23721;DHT22;42950;52.134;5.578;2022-09-03T10:28:25;27.50;99.90
23721;DHT22;42950;52.134;5.578;2022-09-03T10:33:48;27.80;99.90
23721;DHT22;42950;52.134;5.578;2022-09-03T10:36:36;27.90;99.30
23721;DHT22;42950;52.134;5.578;2022-09-03T10:39:14;27.90;99.20
23721;DHT22;42950;52.134;5.578;2022-09-03T11:00:32;28.80;96.70
23721;DHT22;42950;52.134;5.578;2022-09-03T11:06:07;28.80;97.10
23721;DHT22;42950;52.134;5.578;2022-09-03T11:09:02;29.10;96.30
23721;DHT22;42950;52.134;5.578;2022-09-03T11:11:37;29.00;96.00
23721;DHT22;42950;52.134;5.578;2022-09-03T11:14:09;28.90;95.40
23721;DHT22;42950;52.134;5.578;2022-09-03T11:16:50;28.90;96.60
23721;DHT22;42950;52.134;5.578;2022-09-03T11:19:21;29.20;95.60
23721;DHT22;42950;52.134;5.578;2022-09-03T11:21:51;29.50;95.80
23721;DHT22;42950;52.134;5.578;2022-09-03T11:24:22;29.60;94.90
23721;DHT22;42950;52.134;5.578;2022-09-03T11:27:06;29.70;94.90
23721;DHT22;42950;52.134;5.578;2022-09-03T11:29:43;29.80;93.50
23721;DHT22;42950;52.134;5.578;2022-09-03T11:32:21;29.90;93.20
23721;DHT22;42950;52.134;5.578;2022-09-03T11:34:50;29.60;92.60
23721;DHT22;42950;52.134;5.578;2022-09-03T11:37:24;29.60;92.80
23721;DHT22;42950;52.134;5.578;2022-09-03T11:42:34;29.90;92.00
23721;DHT22;42950;52.134;5.578;2022-09-03T11:45:21;29.70;92.00
23721;DHT22;42950;52.134;5.578;2022-09-03T11:47:48;29.90;93.80
23721;DHT22;42950;52.134;5.578;2022-09-03T11:50:33;29.90;91.80
23721;DHT22;42950;52.134;5.578;2022-09-03T11:56:00;30.00;90.90
23721;DHT22;42950;52.134;5.578;2022-09-03T11:58:38;30.10;91.80
23721;DHT22;42950;52.134;5.578;2022-09-03T12:01:12;30.30;90.20
23721;DHT22;42950;52.134;5.578;2022-09-03T12:03:52;30.40;89.70
23721;DHT22;42950;52.134;5.578;2022-09-03T12:17:32;30.50;87.20
23721;DHT22;42950;52.134;5.578;2022-09-03T12:19:59;30.30;91.50
23721;DHT22;42950;52.134;5.578;2022-09-03T12:22:27;30.40;89.70
23721;DHT22;42950;52.134;5.578;2022-09-03T12:24:53;30.30;86.70
23721;DHT22;42950;52.134;5.578;2022-09-03T12:27:25;30.40;85.10
23721;DHT22;42950;52.134;5.578;2022-09-03T12:29:53;30.30;85.50
23721;DHT22;42950;52.134;5.578;2022-09-03T12:32:22;30.20;84.40
23721;DHT22;42950;52.134;5.578;2022-09-03T12:34:48;30.30;86.30
23721;DHT22;42950;52.134;5.578;2022-09-03T12:37:23;30.50;85.90
23721;DHT22;42950;52.134;5.578;2022-09-03T12:39:53;30.70;83.40
23721;DHT22;42950;52.134;5.578;2022-09-03T12:42:30;30.70;82.60
23721;DHT22;42950;52.134;5.578;2022-09-03T12:45:07;30.90;86.20
23721;DHT22;42950;52.134;5.578;2022-09-03T12:47:38;30.90;82.20
23721;DHT22;42950;52.134;5.578;2022-09-03T12:50:10;31.00;84.00
23721;DHT22;42950;52.134;5.578;2022-09-03T12:52:45;31.10;83.40
23721;DHT22;42950;52.134;5.578;2022-09-03T13:00:45;31.10;79.60
23721;DHT22;42950;52.134;5.578;2022-09-03T13:03:28;30.80;82.10
23721;DHT22;42950;52.134;5.578;2022-09-03T13:06:01;30.90;80.30
23721;DHT22;42950;52.134;5.578;2022-09-03T13:08:33;30.80;79.70
23721;DHT22;42950;52.134;5.578;2022-09-03T13:11:04;30.90;85.30
23721;DHT22;42950;52.134;5.578;2022-09-03T13:13:32;31.00;82.20
23721;DHT22;42950;52.134;5.578;2022-09-03T13:18:57;31.10;79.60
23721;DHT22;42950;52.134;5.578;2022-09-03T13:26:40;31.40;76.00
23721;DHT22;42950;52.134;5.578;2022-09-03T13:32:10;31.40;77.90
23721;DHT22;42950;52.134;5.578;2022-09-03T13:34:47;31.70;78.30
23721;DHT22;42950;52.134;5.578;2022-09-03T13:37:42;32.00;77.20
23721;DHT22;42950;52.134;5.578;2022-09-03T13:40:21;31.80;80.10
23721;DHT22;42950;52.134;5.578;2022-09-03T13:43:24;31.70;75.90
23721;DHT22;42950;52.134;5.578;2022-09-03T13:46:06;31.80;77.90
23721;DHT22;42950;52.134;5.578;2022-09-03T13:48:43;31.90;75.90
23721;DHT22;42950;52.134;5.578;2022-09-03T13:51:45;32.10;76.30
23721;DHT22;42950;52.134;5.578;2022-09-03T13:54:26;32.20;75.30
23721;DHT22;42950;52.134;5.578;2022-09-03T13:57:03;32.30;74.60
23721;DHT22;42950;52.134;5.578;2022-09-03T13:59:49;32.20;74.10
23721;DHT22;42950;52.134;5.578;2022-09-03T14:10:34;32.30;74.60
23721;DHT22;42950;52.134;5.578;2022-09-03T14:19:35;32.20;74.10
23721;DHT22;42950;52.134;5.578;2022-09-03T14:24:54;32.20;73.30
23721;DHT22;42950;52.134;5.578;2022-09-03T14:27:28;32.10;74.20
23721;DHT22;42950;52.134;5.578;2022-09-03T14:29:59;32.00;74.60
23721;DHT22;42950;52.134;5.578;2022-09-03T14:32:40;32.10;75.30
23721;DHT22;42950;52.134;5.578;2022-09-03T14:35:30;32.30;74.70
23721;DHT22;42950;52.134;5.578;2022-09-03T14:38:17;32.20;72.30
23721;DHT22;42950;52.134;5.578;2022-09-03T14:40:52;32.20;74.00
23721;DHT22;42950;52.134;5.578;2022-09-03T14:43:46;31.80;74.00
23721;DHT22;42950;52.134;5.578;2022-09-03T14:46:17;31.50;72.70
23721;DHT22;42950;52.134;5.578;2022-09-03T14:51:30;30.40;74.40
23721;DHT22;42950;52.134;5.578;2022-09-03T14:59:32;30.80;76.90
23721;DHT22;42950;52.134;5.578;2022-09-03T15:04:54;30.90;75.10
23721;DHT22;42950;52.134;5.578;2022-09-03T15:12:54;31.10;74.30
23721;DHT22;42950;52.134;5.578;2022-09-03T15:15:32;31.10;73.90
23721;DHT22;42950;52.134;5.578;2022-09-03T15:20:53;31.20;75.00
23721;DHT22;42950;52.134;5.578;2022-09-03T15:23:46;31.20;75.10
23721;DHT22;42950;52.134;5.578;2022-09-03T15:26:46;31.40;73.60
23721;DHT22;42950;52.134;5.578;2022-09-03T15:29:25;31.40;74.40
23721;DHT22;42950;52.134;5.578;2022-09-03T15:32:06;31.30;74.20
23721;DHT22;42950;52.134;5.578;2022-09-03T15:37:18;31.30;73.20
23721;DHT22;42950;52.134;5.578;2022-09-03T15:39:46;31.30;73.30
23721;DHT22;42950;52.134;5.578;2022-09-03T15:42:25;31.10;72.70
23721;DHT22;42950;52.134;5.578;2022-09-03T15:45:07;30.90;73.40
23721;DHT22;42950;52.134;5.578;2022-09-03T15:50:34;30.40;75.10
23721;DHT22;42950;52.134;5.578;2022-09-03T15:55:38;30.50;75.40
23721;DHT22;42950;52.134;5.578;2022-09-03T15:58:33;30.50;76.20
23721;DHT22;42950;52.134;5.578;2022-09-03T16:01:31;30.20;76.20
23721;DHT22;42950;52.134;5.578;2022-09-03T16:15:24;29.60;78.70
23721;DHT22;42950;52.134;5.578;2022-09-03T16:18:24;29.70;78.80
23721;DHT22;42950;52.134;5.578;2022-09-03T16:21:00;29.60;78.70
23721;DHT22;42950;52.134;5.578;2022-09-03T16:26:31;29.30;78.80
23721;DHT22;42950;52.134;5.578;2022-09-03T16:29:14;29.20;79.70
23721;DHT22;42950;52.134;5.578;2022-09-03T16:32:10;29.10;78.90
23721;DHT22;42950;52.134;5.578;2022-09-03T16:35:02;29.00;78.90
23721;DHT22;42950;52.134;5.578;2022-09-03T16:37:45;29.00;80.60
23721;DHT22;42950;52.134;5.578;2022-09-03T16:43:24;28.80;79.50
23721;DHT22;42950;52.134;5.578;2022-09-03T16:51:47;28.60;81.60
23721;DHT22;42950;52.134;5.578;2022-09-03T16:54:22;28.50;81.90
23721;DHT22;42950;52.134;5.578;2022-09-03T17:03:00;28.20;82.60
23721;DHT22;42950;52.134;5.578;2022-09-03T17:16:41;27.70;86.30
23721;DHT22;42950;52.134;5.578;2022-09-03T17:19:28;27.70;87.20
23721;DHT22;42950;52.134;5.578;2022-09-03T17:22:19;27.60;87.30
23721;DHT22;42950;52.134;5.578;2022-09-03T17:24:53;27.50;87.50
23721;DHT22;42950;52.134;5.578;2022-09-03T17:30:08;27.30;88.60
23721;DHT22;42950;52.134;5.578;2022-09-03T17:40:56;26.90;89.70
23721;DHT22;42950;52.134;5.578;2022-09-03T17:43:46;26.90;90.10
23721;DHT22;42950;52.134;5.578;2022-09-03T17:49:00;26.80;90.50
23721;DHT22;42950;52.134;5.578;2022-09-03T17:51:58;26.70;90.60
23721;DHT22;42950;52.134;5.578;2022-09-03T17:54:41;26.60;90.40
23721;DHT22;42950;52.134;5.578;2022-09-03T17:57:21;26.40;90.70
23721;DHT22;42950;52.134;5.578;2022-09-03T18:00:09;26.30;91.10
23721;DHT22;42950;52.134;5.578;2022-09-03T18:02:42;26.20;91.70
23721;DHT22;42950;52.134;5.578;2022-09-03T18:05:20;26.10;92.00
23721;DHT22;42950;52.134;5.578;2022-09-03T18:11:08;26.00;92.50
23721;DHT22;42950;52.134;5.578;2022-09-03T18:16:33;25.80;92.60
23721;DHT22;42950;52.134;5.578;2022-09-03T18:19:29;25.70;92.90
23721;DHT22;42950;52.134;5.578;2022-09-03T18:21:57;25.60;93.30
23721;DHT22;42950;52.134;5.578;2022-09-03T18:24:48;25.50;93.70
23721;DHT22;42950;52.134;5.578;2022-09-03T18:27:48;25.40;94.00
23721;DHT22;42950;52.134;5.578;2022-09-03T18:30:34;25.30;94.50
23721;DHT22;42950;52.134;5.578;2022-09-03T18:33:23;25.10;95.60
23721;DHT22;42950;52.134;5.578;2022-09-03T18:36:08;25.00;96.30
23721;DHT22;42950;52.134;5.578;2022-09-03T18:48:40;24.40;99.90
23721;DHT22;42950;52.134;5.578;2022-09-03T18:51:32;24.20;99.90
23721;DHT22;42950;52.134;5.578;2022-09-03T19:04:07;23.90;99.90
23721;DHT22;42950;52.134;5.578;2022-09-03T19:07:06;23.80;99.90
23721;DHT22;42950;52.134;5.578;2022-09-03T19:09:53;23.70;99.90
23721;DHT22;42950;52.134;5.578;2022-09-03T19:13:07;23.60;99.90
23721;DHT22;42950;52.134;5.578;2022-09-03T19:22:22;23.30;99.90
23721;DHT22;42950;52.134;5.578;2022-09-03T19:25:13;23.20;99.90
23721;DHT22;42950;52.134;5.578;2022-09-03T19:28:20;23.10;99.90
23721;DHT22;42950;52.134;5.578;2022-09-03T19:51:55;22.40;99.90
23721;DHT22;42950;52.134;5.578;2022-09-03T19:54:41;22.40;99.90
23721;DHT22;42950;52.134;5.578;2022-09-03T19:57:26;22.20;99.90
23721;DHT22;42950;52.134;5.578;2022-09-03T20:00:12;22.10;99.90
23721;DHT22;42950;52.134;5.578;2022-09-03T20:02:57;22.10;99.90
23721;DHT22;42950;52.134;5.578;2022-09-03T20:05:42;22.00;99.90
23721;DHT22;42950;52.134;5.578;2022-09-03T20:08:27;21.90;99.90
23721;DHT22;42950;52.134;5.578;2022-09-03T20:11:20;21.90;99.90
23721;DHT22;42950;52.134;5.578;2022-09-03T20:13:47;21.80;99.90
23721;DHT22;42950;52.134;5.578;2022-09-03T20:16:51;21.80;99.90
23721;DHT22;42950;52.134;5.578;2022-09-03T20:19:43;21.60;99.90
23721;DHT22;42950;52.134;5.578;2022-09-03T20:22:17;21.60;99.90
23721;DHT22;42950;52.134;5.578;2022-09-03T20:28:10;21.30;99.90
23721;DHT22;42950;52.134;5.578;2022-09-03T20:30:59;21.30;99.90
23721;DHT22;42950;52.134;5.578;2022-09-03T20:34:00;21.30;99.90
23721;DHT22;42950;52.134;5.578;2022-09-03T20:39:42;21.20;99.90
23721;DHT22;42950;52.134;5.578;2022-09-03T20:42:39;21.20;99.90